Terminal Aerodrome Forecast
Issued by NWS

Home | Current Version | Previous Version | Text Only | Print | Product List | Glossary On
Versions: 1 2 3 4 5 6 7 8 9 10 11 12 13 14 15 16 17 18 19
831
FTUS43 KICT 221125
TAFSLN
TAF
KSLN 221125Z 2212/2312 10004KT P6SM SCT080 OVC200
     FM221300 11006KT 6SM -RA SCT030 OVC050
      TEMPO 2213/2216 4SM RA OVC030
     FM221600 14014KT 6SM BR VCSH SCT009 OVC015=

USA.gov is the U.S. government's official web portal to all federal, state and local government web resources and services.